Virginia Beach, VA

8:42 PM EST on January 31, 2015 (GMT -0500)
Princess Anne Plaza | Change Station
CLOSE
Current Station
Personal Weather Station
Location: Virginia Beach, VA
Elevation: 8 ft
Nearby Weather Stations

Elev 8 ft 36.83 °N, 76.09 °W | Updated 6 minutes ago

Partly Cloudy
Partly Cloudy
25.3 °F
Feels Like 25 °F
N
0.0
Wind Variable Wind from NE

Today
High -- | Low -- °F
--% Chance of Precip.
Yesterday
High -- | Low -- °F
Precip. -- in
7:07 AM 5:28 PM
Waxing Gibbous, 92% visible
Pressure 30.32 in
Visibility 10.0 miles
Clouds Few 25000 ft
Windchill 25 °F
Dew Point 16 °F
Humidity 67%
Rainfall 0.00 in
Snow Depth Not available.
UV 0 out of 12
Pollen 2.10 out of 12
Air Quality Not available.
Flu Activity Not available.
METAR KNTU 010056Z 00000KT 10SM FEW250 M01/M11 A3031 RMK AO2 SLP266 T10111111

More Conditions Fewer Conditions

Pressure 30.32 in
Visibility 10.0 miles
Clouds Few 25000 ft
Windchill 25 °F
Dew Point 16 °F
Humidity 67%
Rainfall 0.00 in
Snow Depth Not available.
UV 0 out of 12
Pollen 2.10 out of 12
Air Quality Not available.
Flu Activity Not available.
METAR KNTU 010056Z 00000KT 10SM FEW250 M01/M11 A3031 RMK AO2 SLP266 T10111111

More Conditions Fewer Conditions

10-Day Weather Forecast

Almanac

Astronomy

Jan. 31, 2015 Rise Set
Actual Time
Civil Twilight
Nautical Twilight
Astronomical Twilight
Moon
Length of Visible Light
Length of Day
Tomorrow will be .
, % of the Moon is Illuminated

Today's Extremes

State Highs State Lows

Community

WunderPhotos

Upload Photos

1,792,280 photos uploaded!

WunderBlogs® & News

Nearby

Air Quality

  Air Quality AQ Index Pollutant
Not available.

Snow Depth

Station Depth Elevation

Earthquake Activity

City Distance Mag. Time & Date
Minimum magnitude displayed is 2.5.

Coastal Water Temperatures

Place Temperature

Nearby Weather Stations